• Join FlightAware (Why Join?)
  • Login
  • US Flag 
07:13AM EDT


 

Airport Tracker/Info


-or-


 

Live Flight TrackerFlight Track Log ✈ ASQ5685 ✈ 01-May-2013 ✈ KATL - KIAD

Flight Track Log - Related Links

Times and Time Zones

All times are in EDT time to prevent confusion due to time zone crossing. See the ASQ5685 flight status page for this flight to view local times or setup timezone preferences in your user account.

Time Position Orientation Groundspeed Altitude Reporting Facility
EDT Latitude Longitude Course Direction KTS MPH feet Rate Location/Type
09:28AM 33.6350 -84.3931 48° Northeast 391 450 2,500  Level Atlanta Center
09:29AM 33.6333 -84.3167 91° East 237 273 4,500 2,520 Climbing Atlanta TRACON
09:30AM 33.8465 -84.1786 73° East  Level Estimated
09:30AM 33.6333 -84.2333 90° East 256 295 7,300  Level Atlanta TRACON
09:31AM 33.9164 -84.0952 54° Northeast  Level Estimated
09:32AM 33.8979 -83.9789 101° East  Level FlightAware Approximate
09:32AM 33.6647 -84.0639 77° East 279 321 11,400  Level Atlanta Center
09:33AM 33.9684 -83.8962 48° Northeast  Level Estimated
09:33AM 33.7233 -83.9864 48° Northeast 293 337 13,400  Level Atlanta Center
09:34AM 33.7900 -83.9014 47° Northeast 306 352 15,300 1,620 Climbing Atlanta Center
09:35AM 33.8525 -83.8186 48° Northeast 321 369 16,700 1,200 Climbing Atlanta Center
09:36AM 33.9192 -83.7358 46° Northeast 326 375 17,800 960 Climbing Atlanta Center
09:37AM 33.9814 -83.6381 52° Northeast 350 403 18,700 660 Climbing Atlanta Center
09:38AM 34.0458 -83.5347 53° Northeast 370 426 19,200 480 Climbing Atlanta Center
09:39AM 34.1161 -83.4242 52° Northeast 395 455 19,700 480 Climbing Atlanta Center
09:40AM 34.1867 -83.3131 52° Northeast 405 466 20,200 480 Climbing Atlanta Center
09:41AM 34.2567 -83.1969 54° Northeast 422 486 20,700 540 Climbing Atlanta Center
09:42AM 34.3269 -83.0806 54° Northeast 422 486 21,300 540 Climbing Atlanta Center
09:43AM 34.4011 -82.9689 51° Northeast 428 493 21,800 480 Climbing Atlanta Center
09:44AM 34.4708 -82.8469 55° Northeast 433 498 22,300 420 Climbing Atlanta Center
09:45AM 34.5367 -82.7453 52° Northeast 433 498 22,700 420 Climbing Atlanta Center
09:46AM 34.6083 -82.6231 55° Northeast 433 498 23,200 600 Climbing Atlanta Center
09:47AM 34.6903 -82.4978 51° Northeast 433 498 24,000 900 Climbing Atlanta Center
09:48AM 34.7597 -82.3853 53° Northeast 428 493 25,000 960 Climbing Atlanta Center
09:49AM 34.8269 -82.2650 56° Northeast 422 486 26,000 900 Climbing Atlanta Center
09:50AM 34.8983 -82.1544 52° Northeast 422 486 26,900 720 Climbing Atlanta Center
09:51AM 34.9656 -82.0389 55° Northeast 417 480 27,500 600 Climbing Atlanta Center
09:52AM 35.0367 -81.9256 53° Northeast 417 480 28,100 600 Climbing Atlanta Center
09:53AM 35.1011 -81.7997 58° Northeast 417 480 28,700 420 Climbing Atlanta Center
09:54AM 35.1656 -81.6783 57° Northeast 424 488 29,000 120 Climbing Atlanta Center
09:55AM 35.2319 -81.5494 58° Northeast 429 494 29,000  Level Atlanta Center
09:56AM 35.2964 -81.4356 55° Northeast 450 518 29,000  Level Atlanta Center
09:57AM 35.3625 -81.3111 57° Northeast 450 518 29,000  Level Atlanta Center
09:58AM 35.4222 -81.1869 59° Northeast 437 503 29,000  Level Atlanta Center
09:59AM 35.4800 -81.0728 58° Northeast 414 476 29,000  Level Atlanta Center
10:00AM 35.5378 -80.9608 58° Northeast 398 458 29,000  Level Atlanta Center
10:01AM 35.5956 -80.8514 57° Northeast 386 444 29,000  Level Atlanta Center
10:02AM 35.6531 -80.7367 58° Northeast 386 444 29,000  Level Atlanta Center
10:03AM 35.7064 -80.6350 57° Northeast 375 432 29,000  Level Atlanta Center
10:04AM 35.7678 -80.5144 58° Northeast 375 432 29,000  Level Atlanta Center
10:05AM 35.8231 -80.4072 58° Northeast 375 432 29,000  Level Atlanta Center
10:06AM 35.8764 -80.3047 57° Northeast 375 432 29,000  Level Atlanta Center
10:08AM 35.9856 -80.1022 56° Northeast 371 427 29,000  Level Washington Center
10:09AM 36.0394 -79.9947 58° Northeast 371 427 29,000  Level Washington Center
10:10AM 36.0975 -79.8928 55° Northeast 366 421 29,000  Level Washington Center
10:11AM 36.1533 -79.7903 56° Northeast 361 415 29,000  Level Washington Center
10:12AM 36.2156 -79.6778 56° Northeast 372 428 29,000  Level Washington Center
10:13AM 36.2711 -79.5803 55° Northeast 383 441 29,000 -300 Level Washington Center
10:14AM 36.3422 -79.4522 55° Northeast 397 457 28,500 -660 Descending Washington Center
10:15AM 36.4083 -79.3342 55° Northeast 408 470 27,800 -660 Descending Washington Center
10:16AM 36.4725 -79.2183 55° Northeast 430 495 27,200 -660 Descending Washington Center
10:17AM 36.5517 -79.0825 54° Northeast 435 501 26,500 -720 Descending Washington Center
10:18AM 36.6242 -78.9539 55° Northeast 435 501 25,800 -780 Descending Washington Center
10:19AM 36.6903 -78.8244 57° Northeast 441 507 25,000 -420 Descending Washington Center
10:20AM 36.7517 -78.7131 55° Northeast 414 476 25,000  Level Washington Center
10:21AM 36.8086 -78.6089 56° Northeast 381 438 25,000  Level Washington Center
10:22AM 36.8675 -78.5047 55° Northeast 368 423 25,000 -420 Level Washington Center
10:23AM 36.9319 -78.4319 42° Northeast 357 411 24,200 -900 Descending Washington Center
10:24AM 37.0067 -78.3567 39° Northeast 345 397 23,200 -1,020 Descending Washington Center
10:25AM 37.0814 -78.2811 39° Northeast 340 391 22,200 -660 Descending Washington Center
10:26AM 37.1667 -78.1956 39° Northeast 345 397 22,000 -120 Descending Washington Center
10:27AM 37.2328 -78.1325 37° Northeast 345 397 22,000  Level Washington Center
10:28AM 37.3097 -78.0517 40° Northeast 345 397 22,000  Level Washington Center
10:29AM 37.3861 -77.9756 38° Northeast 345 397 22,000  Level Washington Center
10:30AM 37.4628 -77.8969 39° Northeast 350 403 22,000 -600 Level Washington Center
10:31AM 37.5414 -77.8208 38° Northeast 355 409 20,800 -1,380 Descending Washington Center
10:32AM 37.6300 -77.7708 24° Northeast 348 400 19,300 -1,560 Descending Washington Center
10:33AM 37.7144 -77.7208 25° Northeast 337 388 17,800 -1,320 Descending Washington Center
10:34AM 37.7967 -77.6706 26° Northeast 332 382 16,700 -1,320 Descending Washington Center
10:35AM 37.8828 -77.6228 24° Northeast 326 375 15,200 -1,560 Descending Washington Center
10:36AM 37.9608 -77.5750 26° Northeast 314 361 13,700 -1,380 Descending Washington Center
10:37AM 38.0386 -77.5322 23° Northeast 308 354 12,500 -1,320 Descending Washington Center
10:38AM 38.1167 -77.4894 23° Northeast 303 349 11,100 -1,260 Descending Washington Center
10:39AM 38.1881 -77.4464 25° Northeast 291 335 10,000 -600 Descending Washington Center
10:40AM 38.2575 -77.4031 26° Northeast 279 321 10,000  Level Washington Center
10:41AM 38.3269 -77.3622 25° Northeast 279 321 10,000 -780 Level Washington Center
10:42AM 38.4083 -77.3589 North 273 314 8,500 -1,560 Descending Washington Center
10:43AM 38.4833 -77.3633 357° North 273 314 7,000 -1,500 Descending Washington Center
10:44AM 38.5542 -77.3650 359° North 268 308 5,600 -1,200 Descending Washington Center
10:45AM 38.6292 -77.3669 359° North 268 308 4,700 -720 Descending Washington Center
10:46AM 38.7003 -77.3633 North 263 303 4,200 -360 Descending Washington Center
10:47AM 38.7833 -77.3500 North 254 292 4,000 -120 Descending Potomac TRACON
10:48AM 38.8500 -77.3500 360° North 232 267 4,000 -360 Level Potomac TRACON
10:49AM 38.9167 -77.3500 360° North 236 272 3,300 -540 Descending Potomac TRACON
10:50AM 38.9833 -77.3500 360° North 201 231 3,000 -300 Descending Potomac TRACON